createdAt,value
2017-07-19T00:00:52.430Z,20.10
2017-07-19T00:03:18.833Z,20.00
2017-07-19T00:05:45.231Z,20.00
2017-07-19T00:08:11.654Z,19.90
2017-07-19T00:10:38.044Z,19.80
2017-07-19T00:13:04.566Z,19.70
2017-07-19T00:15:31.007Z,19.70
2017-07-19T00:17:57.880Z,19.70
2017-07-19T00:20:25.032Z,19.50
2017-07-19T00:22:52.168Z,19.40
2017-07-19T00:25:24.592Z,19.40
2017-07-19T00:27:50.960Z,19.40
2017-07-19T00:30:17.373Z,19.30
2017-07-19T00:32:43.755Z,19.30
2017-07-19T00:35:11.025Z,19.40
2017-07-19T00:37:37.443Z,19.30
2017-07-19T00:40:04.583Z,19.30
2017-07-19T00:42:31.724Z,19.20
2017-07-19T00:44:59.677Z,19.30
2017-07-19T00:47:26.076Z,19.30
2017-07-19T00:49:52.474Z,19.30
2017-07-19T00:52:19.624Z,19.30
2017-07-19T00:54:46.810Z,19.20
2017-07-19T00:57:13.225Z,19.20
2017-07-19T00:59:39.621Z,19.20
2017-07-19T01:02:06.024Z,19.10
2017-07-19T01:04:32.460Z,19.00
2017-07-19T01:06:58.851Z,18.90
2017-07-19T01:09:25.270Z,18.80
2017-07-19T01:11:51.696Z,18.70
2017-07-19T01:14:18.892Z,18.60
2017-07-19T01:16:45.309Z,18.60
2017-07-19T01:19:11.747Z,18.50
2017-07-19T01:21:38.156Z,18.40
2017-07-19T01:24:04.565Z,18.50
2017-07-19T01:26:30.983Z,18.60
2017-07-19T01:28:57.377Z,18.50
2017-07-19T01:31:23.813Z,18.50
2017-07-19T01:33:50.237Z,18.50
2017-07-19T01:36:16.692Z,18.50
2017-07-19T01:38:43.104Z,18.50
2017-07-19T01:41:09.541Z,18.70
2017-07-19T01:43:36.394Z,18.80
2017-07-19T01:46:02.815Z,18.90
2017-07-19T01:48:29.280Z,18.90
2017-07-19T01:50:55.722Z,18.80
2017-07-19T01:53:22.212Z,18.70
2017-07-19T01:55:48.680Z,18.50
2017-07-19T01:58:15.105Z,18.30
2017-07-19T02:00:41.558Z,18.10
2017-07-19T02:03:08.419Z,18.10
2017-07-19T02:05:34.856Z,18.20
2017-07-19T02:08:02.457Z,18.20
2017-07-19T02:10:28.894Z,18.20
2017-07-19T02:12:55.290Z,18.20
2017-07-19T02:15:22.460Z,18.20
2017-07-19T02:17:48.876Z,18.20
2017-07-19T02:20:16.050Z,18.30
2017-07-19T02:22:42.444Z,18.30
2017-07-19T02:25:08.851Z,18.20
2017-07-19T02:27:35.306Z,18.10
2017-07-19T02:30:01.795Z,18.20
2017-07-19T02:32:28.197Z,18.10
2017-07-19T02:34:55.361Z,17.90
2017-07-19T02:37:21.768Z,17.90
2017-07-19T02:39:48.957Z,17.70
2017-07-19T02:42:15.365Z,17.80
2017-07-19T02:44:41.776Z,17.70
2017-07-19T02:47:08.180Z,17.60
2017-07-19T02:49:34.585Z,17.60
2017-07-19T02:52:01.008Z,17.60
2017-07-19T02:54:27.392Z,17.60
2017-07-19T02:56:53.810Z,17.60
2017-07-19T02:59:20.275Z,17.60
2017-07-19T03:01:47.427Z,17.60
2017-07-19T03:04:14.588Z,17.60
2017-07-19T03:06:41.727Z,17.60
2017-07-19T03:09:08.872Z,17.60
2017-07-19T03:11:35.274Z,17.60
2017-07-19T03:14:01.673Z,17.50
2017-07-19T03:16:28.088Z,17.60
2017-07-19T03:18:55.264Z,17.50
2017-07-19T03:21:21.699Z,17.40
2017-07-19T03:23:48.137Z,17.40
2017-07-19T03:26:14.529Z,17.40
2017-07-19T03:28:41.672Z,17.30
2017-07-19T03:31:08.806Z,17.30
2017-07-19T03:33:35.233Z,17.20
2017-07-19T03:36:01.650Z,17.30
2017-07-19T03:38:28.094Z,17.40
2017-07-19T03:40:54.500Z,17.40
2017-07-19T03:43:20.947Z,17.30
2017-07-19T03:45:47.328Z,17.10
2017-07-19T03:48:14.536Z,17.10
2017-07-19T03:50:40.999Z,17.10
2017-07-19T03:53:08.152Z,17.20
2017-07-19T03:55:35.284Z,17.30
2017-07-19T03:58:01.692Z,17.30
2017-07-19T04:00:28.121Z,17.30
2017-07-19T04:02:54.534Z,17.20
2017-07-19T04:05:20.921Z,17.20
2017-07-19T04:07:47.297Z,17.10
2017-07-19T04:10:13.786Z,17.20
2017-07-19T04:12:40.219Z,17.20
2017-07-19T04:15:06.684Z,17.20
2017-07-19T04:17:33.116Z,17.30
2017-07-19T04:20:00.250Z,17.40
2017-07-19T04:22:27.408Z,17.40
2017-07-19T04:24:54.783Z,17.40
2017-07-19T04:27:21.193Z,17.30
2017-07-19T04:29:48.336Z,17.50
2017-07-19T04:32:15.493Z,17.50
2017-07-19T04:34:42.736Z,17.50
2017-07-19T04:37:09.880Z,17.40
2017-07-19T04:39:36.314Z,17.40
2017-07-19T04:42:02.700Z,17.40
2017-07-19T04:44:29.089Z,17.50
2017-07-19T04:46:55.568Z,17.50
2017-07-19T04:49:21.985Z,17.60
2017-07-19T04:51:48.412Z,17.70
2017-07-19T04:54:14.868Z,17.80
2017-07-19T04:56:41.287Z,17.90
2017-07-19T04:59:07.753Z,18.00
2017-07-19T05:01:34.144Z,18.20
2017-07-19T05:04:00.748Z,18.30
2017-07-19T05:06:27.170Z,18.40
2017-07-19T05:08:53.577Z,18.50
2017-07-19T05:11:20.019Z,18.60
2017-07-19T05:13:46.501Z,18.80
2017-07-19T05:16:13.661Z,19.10
2017-07-19T05:18:40.091Z,19.10
2017-07-19T05:21:06.553Z,19.30
2017-07-19T05:23:32.974Z,19.40
2017-07-19T05:25:59.370Z,19.70
2017-07-19T05:28:25.823Z,19.80
2017-07-19T05:30:52.984Z,20.30
2017-07-19T05:33:19.397Z,20.30
2017-07-19T05:35:46.555Z,20.60
2017-07-19T05:38:12.933Z,20.60
2017-07-19T05:40:39.326Z,20.90
2017-07-19T05:43:05.768Z,21.10
2017-07-19T05:45:32.181Z,21.30
2017-07-19T05:47:59.355Z,21.70
2017-07-19T05:50:25.761Z,21.70
2017-07-19T05:52:52.155Z,21.90
2017-07-19T05:55:18.609Z,22.10
2017-07-19T05:57:52.450Z,22.50
2017-07-19T06:00:18.876Z,22.50
2017-07-19T06:02:45.284Z,22.90
2017-07-19T06:05:12.439Z,23.50
2017-07-19T06:07:39.602Z,24.00
2017-07-19T06:10:06.762Z,24.50
2017-07-19T06:12:33.160Z,24.40
2017-07-19T06:14:59.576Z,24.90
2017-07-19T06:17:25.996Z,25.30
2017-07-19T06:19:52.405Z,25.80
2017-07-19T06:22:19.198Z,26.20
2017-07-19T06:24:45.652Z,27.00
2017-07-19T06:27:12.798Z,27.50
2017-07-19T06:29:39.930Z,27.80
2017-07-19T06:32:06.356Z,27.70
2017-07-19T06:34:32.798Z,28.30
2017-07-19T06:36:59.231Z,28.20
2017-07-19T06:39:25.615Z,28.20
2017-07-19T06:41:52.017Z,28.50
2017-07-19T06:44:19.145Z,28.90
2017-07-19T06:46:45.570Z,28.90
2017-07-19T06:49:11.988Z,29.10
2017-07-19T06:51:38.421Z,29.00
2017-07-19T06:54:04.821Z,29.00
2017-07-19T06:56:31.257Z,29.00
2017-07-19T06:58:57.660Z,29.10
2017-07-19T07:01:24.882Z,29.20
2017-07-19T07:03:51.325Z,29.20
2017-07-19T07:06:18.484Z,29.00
2017-07-19T07:08:45.636Z,29.10
2017-07-19T07:11:12.075Z,29.10
2017-07-19T07:13:38.537Z,29.00
2017-07-19T07:16:04.940Z,29.00
2017-07-19T07:18:32.114Z,29.20
2017-07-19T07:20:58.538Z,29.20
2017-07-19T07:23:24.932Z,29.20
2017-07-19T07:25:52.198Z,29.10
2017-07-19T07:28:18.624Z,29.10
2017-07-19T07:30:45.105Z,28.90
2017-07-19T07:33:11.526Z,28.70
2017-07-19T07:35:37.931Z,28.70
2017-07-19T07:38:04.339Z,28.80
2017-07-19T07:40:30.743Z,29.10
2017-07-19T07:42:57.148Z,29.10
2017-07-19T07:45:24.356Z,28.80
2017-07-19T07:47:50.791Z,28.80
2017-07-19T07:50:17.202Z,28.80
2017-07-19T07:52:43.621Z,28.90
2017-07-19T07:55:10.018Z,28.60
2017-07-19T07:57:36.464Z,28.50
2017-07-19T08:00:03.616Z,28.90
2017-07-19T08:02:30.793Z,29.00
2017-07-19T08:04:57.221Z,29.00
2017-07-19T08:07:23.615Z,29.30
2017-07-19T08:09:50.018Z,29.50
2017-07-19T08:12:16.437Z,29.50
2017-07-19T08:14:53.902Z,29.50
2017-07-19T08:17:22.227Z,29.40
2017-07-19T08:20:02.637Z,29.40
2017-07-19T08:22:32.844Z,29.60
2017-07-19T08:25:04.007Z,29.60
2017-07-19T08:27:36.284Z,29.60
2017-07-19T08:30:04.804Z,29.60
2017-07-19T08:35:05.189Z,29.60
2017-07-19T08:37:32.388Z,29.70
2017-07-19T08:39:58.813Z,29.70
2017-07-19T08:42:25.257Z,29.80
2017-07-19T08:44:57.479Z,30.00
2017-07-19T08:47:23.935Z,30.00
2017-07-19T08:49:50.395Z,30.20
2017-07-19T08:52:16.809Z,30.40
2017-07-19T08:54:43.267Z,30.60
2017-07-19T08:57:09.716Z,30.70
2017-07-19T08:59:36.175Z,30.90
2017-07-19T09:02:02.682Z,30.90
2017-07-19T09:04:29.071Z,30.80
2017-07-19T09:06:55.488Z,30.80
2017-07-19T09:09:21.904Z,31.10
2017-07-19T09:11:49.067Z,31.00
2017-07-19T09:14:16.256Z,31.00
2017-07-19T09:16:42.674Z,30.90
2017-07-19T09:19:09.082Z,31.00
2017-07-19T09:21:35.497Z,31.00
2017-07-19T09:24:01.902Z,30.90
2017-07-19T09:26:28.347Z,31.00
2017-07-19T09:28:54.760Z,31.10
2017-07-19T09:31:21.192Z,31.00
2017-07-19T09:33:47.630Z,31.00
2017-07-19T09:36:14.061Z,31.00
2017-07-19T09:38:40.475Z,30.90
2017-07-19T09:41:06.894Z,30.80
2017-07-19T09:43:33.337Z,30.90
2017-07-19T09:45:59.913Z,30.90
2017-07-19T09:48:26.320Z,30.80
2017-07-19T09:50:52.738Z,30.80
2017-07-19T09:53:19.151Z,30.80
2017-07-19T09:55:45.598Z,30.80
2017-07-19T09:58:11.994Z,30.90
2017-07-19T10:00:38.396Z,31.10
2017-07-19T10:03:04.820Z,31.30
2017-07-19T10:05:31.272Z,31.40
2017-07-19T10:07:57.672Z,31.40
2017-07-19T10:10:24.091Z,31.60
2017-07-19T10:12:50.519Z,31.70
2017-07-19T10:15:17.681Z,31.80
2017-07-19T10:17:44.122Z,31.80
2017-07-19T10:20:10.556Z,31.90
2017-07-19T10:22:36.983Z,32.00
2017-07-19T10:25:03.393Z,32.00
2017-07-19T10:27:29.775Z,32.10
2017-07-19T10:29:56.176Z,32.40
2017-07-19T10:32:22.613Z,32.50
2017-07-19T10:34:49.045Z,32.50
2017-07-19T10:37:15.476Z,32.50
2017-07-19T10:39:41.936Z,32.40
2017-07-19T10:42:08.352Z,32.30
2017-07-19T10:44:34.785Z,32.30
2017-07-19T10:47:01.274Z,32.20
2017-07-19T10:49:27.700Z,32.00
2017-07-19T10:51:54.142Z,31.80
2017-07-19T10:54:20.572Z,31.60
2017-07-19T10:56:46.957Z,31.40
2017-07-19T10:59:13.405Z,30.90
2017-07-19T11:01:39.789Z,29.60
2017-07-19T11:04:06.900Z,26.70
2017-07-19T11:06:40.303Z,26.70
2017-07-19T11:09:06.770Z,26.30
2017-07-19T11:11:33.225Z,26.00
2017-07-19T11:14:00.571Z,26.10
2017-07-19T11:16:26.988Z,26.20
2017-07-19T11:18:54.168Z,26.40
2017-07-19T11:21:20.539Z,26.40
2017-07-19T11:23:46.925Z,26.70
2017-07-19T11:26:13.325Z,26.90
2017-07-19T11:28:39.754Z,27.10
2017-07-19T11:31:06.170Z,27.50
2017-07-19T11:33:32.593Z,27.80
2017-07-19T11:35:58.975Z,28.00
2017-07-19T11:38:25.370Z,28.30
2017-07-19T11:40:51.793Z,28.40
2017-07-19T11:43:18.217Z,28.60
2017-07-19T11:45:44.695Z,28.60
2017-07-19T11:48:11.695Z,28.70
2017-07-19T11:50:38.087Z,28.70
2017-07-19T11:53:05.222Z,29.00
2017-07-19T11:55:31.623Z,29.00
2017-07-19T11:57:58.074Z,28.70
2017-07-19T12:00:24.448Z,28.40
2017-07-19T12:02:50.848Z,28.30
2017-07-19T12:05:17.249Z,28.10
2017-07-19T12:10:13.412Z,28.10
2017-07-19T12:12:40.258Z,27.70
2017-07-19T12:15:06.652Z,27.60
2017-07-19T12:17:33.075Z,27.50
2017-07-19T12:19:59.485Z,27.20
2017-07-19T12:22:25.868Z,27.10
2017-07-19T12:24:52.269Z,27.00
2017-07-19T12:29:46.227Z,26.90
2017-07-19T12:32:12.595Z,26.80
2017-07-19T12:34:38.960Z,26.80
2017-07-19T12:37:05.353Z,26.80
2017-07-19T12:39:31.774Z,26.80
2017-07-19T12:41:58.182Z,26.80
2017-07-19T12:44:24.618Z,26.90
2017-07-19T12:46:51.798Z,27.10
2017-07-19T12:49:18.214Z,27.10
2017-07-19T12:51:45.416Z,27.20
2017-07-19T12:54:11.796Z,27.20
2017-07-19T12:56:38.937Z,27.40
2017-07-19T12:59:06.078Z,27.60
2017-07-19T13:01:32.541Z,27.60
2017-07-19T13:03:59.713Z,27.90
2017-07-19T13:06:26.107Z,27.90
2017-07-19T13:08:53.251Z,28.20
2017-07-19T13:11:19.656Z,28.20
2017-07-19T13:13:46.056Z,28.20
2017-07-19T13:16:12.456Z,28.30
2017-07-19T13:18:38.827Z,28.40
2017-07-19T13:21:05.242Z,28.60
2017-07-19T13:23:31.683Z,28.90
2017-07-19T13:25:58.109Z,28.90
2017-07-19T13:28:24.513Z,29.20
2017-07-19T13:30:50.982Z,29.30
2017-07-19T13:33:18.146Z,29.60
2017-07-19T13:35:44.567Z,29.60
2017-07-19T13:38:11.004Z,29.80
2017-07-19T13:40:37.410Z,29.90
2017-07-19T13:43:03.844Z,30.10
2017-07-19T13:45:31.012Z,30.50
2017-07-19T13:47:57.400Z,30.40
2017-07-19T13:50:23.814Z,30.30
2017-07-19T13:52:50.235Z,30.40
2017-07-19T13:55:16.675Z,30.40
2017-07-19T13:57:43.865Z,30.40
2017-07-19T14:00:10.315Z,30.40
2017-07-19T14:02:36.769Z,30.60
2017-07-19T14:05:03.180Z,30.70
2017-07-19T14:07:29.612Z,30.60
2017-07-19T14:09:56.002Z,30.80
2017-07-19T14:12:22.424Z,30.90
2017-07-19T14:14:48.830Z,30.90
2017-07-19T14:17:15.229Z,30.80
2017-07-19T14:19:41.630Z,30.70
2017-07-19T14:22:08.028Z,30.90
2017-07-19T14:24:34.446Z,31.00
2017-07-19T14:27:00.856Z,31.30
2017-07-19T14:29:27.273Z,31.40
2017-07-19T14:32:08.610Z,31.30
2017-07-19T14:34:35.003Z,31.20
2017-07-19T14:37:01.657Z,31.20
2017-07-19T14:39:28.050Z,31.10
2017-07-19T14:41:54.442Z,31.10
2017-07-19T14:44:20.856Z,31.00
2017-07-19T14:46:47.257Z,30.90
2017-07-19T14:49:13.658Z,30.80
2017-07-19T14:51:40.399Z,30.60
2017-07-19T14:54:06.792Z,30.30
2017-07-19T14:56:33.208Z,30.00
2017-07-19T14:58:59.628Z,29.90
2017-07-19T15:01:26.025Z,29.80
2017-07-19T15:03:52.450Z,29.70
2017-07-19T15:06:18.927Z,29.60
2017-07-19T15:08:45.382Z,29.50
2017-07-19T15:11:12.533Z,29.20
2017-07-19T15:13:38.946Z,29.20
2017-07-19T15:16:05.331Z,29.20
2017-07-19T15:18:31.717Z,29.30
2017-07-19T15:20:58.138Z,29.10
2017-07-19T15:23:24.531Z,28.90
2017-07-19T15:25:50.974Z,28.50
2017-07-19T15:28:17.387Z,28.20
2017-07-19T15:30:43.812Z,28.10
2017-07-19T15:33:10.237Z,28.10
2017-07-19T15:35:37.377Z,28.20
2017-07-19T15:38:03.795Z,28.20
2017-07-19T15:40:30.183Z,28.00
2017-07-19T15:42:56.607Z,27.70
2017-07-19T15:45:23.028Z,27.50
2017-07-19T15:47:50.200Z,26.80
2017-07-19T15:50:16.690Z,26.80
2017-07-19T15:52:43.903Z,26.50
2017-07-19T15:55:10.306Z,26.40
2017-07-19T15:57:36.719Z,26.40
2017-07-19T16:00:03.876Z,26.40
2017-07-19T16:02:30.294Z,26.40
2017-07-19T16:04:56.700Z,26.30
2017-07-19T16:07:23.128Z,26.40
2017-07-19T16:09:49.518Z,26.40
2017-07-19T16:12:16.005Z,26.40
2017-07-19T16:14:42.421Z,26.40
2017-07-19T16:17:08.861Z,26.40
2017-07-19T16:19:35.270Z,26.40
2017-07-19T16:22:01.665Z,26.40
2017-07-19T16:24:28.829Z,26.40
2017-07-19T16:26:55.996Z,26.40
2017-07-19T16:29:22.421Z,26.40
2017-07-19T16:31:48.850Z,26.40
2017-07-19T16:34:15.250Z,26.40
2017-07-19T16:36:41.688Z,26.60
2017-07-19T16:39:08.106Z,26.50
2017-07-19T16:41:34.513Z,26.40
2017-07-19T16:44:00.929Z,26.40
2017-07-19T16:46:27.332Z,26.30
2017-07-19T16:48:54.520Z,26.40
2017-07-19T16:51:20.919Z,26.40
2017-07-19T16:53:48.062Z,26.50
2017-07-19T16:56:15.248Z,26.60
2017-07-19T16:58:41.712Z,26.60
2017-07-19T17:01:08.106Z,26.60
2017-07-19T17:03:34.522Z,26.50
2017-07-19T17:06:01.657Z,26.70
2017-07-19T17:08:28.117Z,26.70
2017-07-19T17:10:54.582Z,26.70
2017-07-19T17:13:20.989Z,26.50
2017-07-19T17:15:47.382Z,26.70
2017-07-19T17:18:13.789Z,26.70
2017-07-19T17:20:40.206Z,26.80
2017-07-19T17:23:06.613Z,26.80
2017-07-19T17:25:33.052Z,27.00
2017-07-19T17:27:59.465Z,27.20
2017-07-19T17:30:26.627Z,27.50
2017-07-19T17:32:53.785Z,27.60
2017-07-19T17:35:20.188Z,27.50
2017-07-19T17:37:46.595Z,27.40
2017-07-19T17:40:13.007Z,27.40
2017-07-19T17:42:39.440Z,27.30
2017-07-19T17:45:05.822Z,27.20
2017-07-19T17:47:32.969Z,27.40
2017-07-19T17:49:59.384Z,27.40
2017-07-19T17:52:25.818Z,27.50
2017-07-19T17:54:52.228Z,27.30
2017-07-19T17:57:18.644Z,27.20
2017-07-19T17:59:45.069Z,27.10
2017-07-19T18:02:11.490Z,27.00
2017-07-19T18:04:37.901Z,27.00
2017-07-19T18:07:04.281Z,26.90
2017-07-19T18:09:30.704Z,26.90
2017-07-19T18:11:57.159Z,26.90
2017-07-19T18:14:23.551Z,26.90
2017-07-19T18:16:49.963Z,26.90
2017-07-19T18:19:17.127Z,27.00
2017-07-19T18:21:44.265Z,26.90
2017-07-19T18:24:10.656Z,27.00
2017-07-19T18:26:37.072Z,26.80
2017-07-19T18:29:03.566Z,26.80
2017-07-19T18:31:29.997Z,26.80
2017-07-19T18:33:56.426Z,26.70
2017-07-19T18:36:23.622Z,26.90
2017-07-19T18:38:50.169Z,26.80
2017-07-19T18:41:31.513Z,26.80
2017-07-19T18:43:58.663Z,26.50
2017-07-19T18:46:25.833Z,26.40
2017-07-19T18:48:52.223Z,26.30
2017-07-19T18:51:18.713Z,26.20
2017-07-19T18:53:45.153Z,26.10
2017-07-19T18:56:11.606Z,25.90
2017-07-19T18:58:38.002Z,25.60
2017-07-19T19:01:04.819Z,25.50
2017-07-19T19:03:31.229Z,25.30
2017-07-19T19:05:57.671Z,25.10
2017-07-19T19:08:24.840Z,24.80
2017-07-19T19:10:52.027Z,24.70
2017-07-19T19:13:19.351Z,24.70
2017-07-19T19:15:46.518Z,24.50
2017-07-19T19:18:13.003Z,24.40
2017-07-19T19:20:39.401Z,24.30
2017-07-19T19:23:05.843Z,24.20
2017-07-19T19:25:32.263Z,24.10
2017-07-19T19:27:58.678Z,23.90
2017-07-19T19:30:25.138Z,23.80
2017-07-19T19:32:51.550Z,23.70
2017-07-19T19:35:17.943Z,23.70
2017-07-19T19:37:44.436Z,23.60
2017-07-19T19:40:10.861Z,23.60
2017-07-19T19:42:37.291Z,23.40
2017-07-19T19:45:03.711Z,23.20
2017-07-19T19:47:30.123Z,23.20
2017-07-19T19:49:57.338Z,22.90
2017-07-19T19:52:23.778Z,22.90
2017-07-19T19:54:50.172Z,22.80
2017-07-19T19:57:16.609Z,22.60
2017-07-19T19:59:43.109Z,22.50
2017-07-19T20:02:09.534Z,22.30
2017-07-19T20:04:36.734Z,22.20
2017-07-19T20:07:03.156Z,22.20
2017-07-19T20:09:29.596Z,22.00
2017-07-19T20:11:56.037Z,21.90
2017-07-19T20:14:22.499Z,21.80
2017-07-19T20:16:48.963Z,21.70
2017-07-19T20:19:15.402Z,21.70
2017-07-19T20:21:42.536Z,21.70
2017-07-19T20:24:08.963Z,21.60
2017-07-19T20:26:35.376Z,21.60
2017-07-19T20:29:01.767Z,21.70
2017-07-19T20:31:28.182Z,21.70
2017-07-19T20:33:55.566Z,21.30
2017-07-19T20:36:21.955Z,21.30
2017-07-19T20:38:49.123Z,20.90
2017-07-19T20:41:16.259Z,20.80
2017-07-19T20:43:43.409Z,20.70
2017-07-19T20:46:09.810Z,20.70
2017-07-19T20:48:36.217Z,20.70
2017-07-19T20:51:02.643Z,20.80
2017-07-19T20:53:29.080Z,20.60
2017-07-19T20:55:55.505Z,20.50
2017-07-19T20:58:21.939Z,20.50
2017-07-19T21:00:48.363Z,20.40
2017-07-19T21:03:14.805Z,20.40
2017-07-19T21:05:41.205Z,20.50
2017-07-19T21:08:11.344Z,20.60
2017-07-19T21:10:38.500Z,20.60
2017-07-19T21:13:04.893Z,20.60
2017-07-19T21:15:31.297Z,20.50
2017-07-19T21:17:57.707Z,20.40
2017-07-19T21:20:24.132Z,20.10
2017-07-19T21:22:50.528Z,19.80
2017-07-19T21:25:18.458Z,19.40
2017-07-19T21:27:44.876Z,19.40
2017-07-19T21:30:11.272Z,19.40
2017-07-19T21:32:38.413Z,19.40
2017-07-19T21:35:04.825Z,19.40
2017-07-19T21:37:31.216Z,19.40
2017-07-19T21:39:57.611Z,19.40
2017-07-19T21:42:24.755Z,19.40
2017-07-19T21:44:51.165Z,19.30
2017-07-19T21:47:17.589Z,19.40
2017-07-19T21:49:43.998Z,19.50
2017-07-19T21:52:10.404Z,19.40
2017-07-19T21:54:37.557Z,19.30
2017-07-19T21:57:04.689Z,19.30
2017-07-19T21:59:31.835Z,19.10
2017-07-19T22:01:58.278Z,19.10
2017-07-19T22:04:25.410Z,18.90
2017-07-19T22:06:51.864Z,18.80
2017-07-19T22:09:18.232Z,18.90
2017-07-19T22:11:44.624Z,19.00
2017-07-19T22:14:11.787Z,19.00
2017-07-19T22:16:38.193Z,19.00
2017-07-19T22:19:04.633Z,18.80
2017-07-19T22:21:31.042Z,18.70
2017-07-19T22:23:57.441Z,18.50
2017-07-19T22:26:23.848Z,18.30
2017-07-19T22:28:51.045Z,18.40
2017-07-19T22:31:17.491Z,18.30
2017-07-19T22:33:43.897Z,18.40
2017-07-19T22:36:10.298Z,18.50
2017-07-19T22:38:36.697Z,18.50
2017-07-19T22:41:03.093Z,18.50
2017-07-19T22:43:29.536Z,18.40
2017-07-19T22:45:55.956Z,18.30
2017-07-19T22:48:22.357Z,18.20
2017-07-19T22:50:49.482Z,18.10
2017-07-19T22:53:15.878Z,18.10
2017-07-19T22:55:42.278Z,18.00
2017-07-19T22:58:09.418Z,17.90
2017-07-19T23:00:36.599Z,17.80
2017-07-19T23:03:02.995Z,17.80
2017-07-19T23:05:29.418Z,17.80
2017-07-19T23:07:55.838Z,17.80
2017-07-19T23:10:22.243Z,17.70
2017-07-19T23:12:48.677Z,17.70
2017-07-19T23:15:15.097Z,17.60
2017-07-19T23:17:41.647Z,17.60
2017-07-19T23:20:08.056Z,17.60
2017-07-19T23:22:34.492Z,17.50
2017-07-19T23:25:00.905Z,17.50
2017-07-19T23:27:28.045Z,17.50
2017-07-19T23:29:55.196Z,17.40
2017-07-19T23:32:22.358Z,17.40
2017-07-19T23:34:49.510Z,17.30
2017-07-19T23:37:16.647Z,17.20
2017-07-19T23:39:43.806Z,17.10
2017-07-19T23:42:10.961Z,17.20
2017-07-19T23:44:37.386Z,17.20
2017-07-19T23:47:04.521Z,17.20
2017-07-19T23:49:30.927Z,17.20
2017-07-19T23:51:57.329Z,17.30
2017-07-19T23:54:23.757Z,17.30
2017-07-19T23:56:50.156Z,17.20
2017-07-19T23:59:16.630Z,17.20
